sensor_id;sensor_type;location;lat;lon;timestamp;P1;durP1;ratioP1;P2;durP2;ratioP2
14526;SDS011;7350;51.208;4.238;2023-04-23T00:02:00;7.25;;;6.65;;
14526;SDS011;7350;51.208;4.238;2023-04-23T00:04:28;7.55;;;6.88;;
14526;SDS011;7350;51.208;4.238;2023-04-23T00:07:03;7.10;;;6.40;;
14526;SDS011;7350;51.208;4.238;2023-04-23T00:09:31;6.53;;;6.03;;
14526;SDS011;7350;51.208;4.238;2023-04-23T00:11:59;6.55;;;5.97;;
14526;SDS011;7350;51.208;4.238;2023-04-23T00:14:27;7.05;;;6.35;;
14526;SDS011;7350;51.208;4.238;2023-04-23T00:16:54;7.88;;;7.18;;
14526;SDS011;7350;51.208;4.238;2023-04-23T00:19:22;6.78;;;6.18;;
14526;SDS011;7350;51.208;4.238;2023-04-23T00:21:49;6.75;;;6.20;;
14526;SDS011;7350;51.208;4.238;2023-04-23T00:24:19;6.93;;;6.32;;
14526;SDS011;7350;51.208;4.238;2023-04-23T00:26:46;7.25;;;6.55;;
14526;SDS011;7350;51.208;4.238;2023-04-23T00:29:12;7.07;;;6.47;;
14526;SDS011;7350;51.208;4.238;2023-04-23T00:31:39;7.05;;;6.45;;
14526;SDS011;7350;51.208;4.238;2023-04-23T00:34:06;7.10;;;6.47;;
14526;SDS011;7350;51.208;4.238;2023-04-23T00:36:33;7.05;;;6.45;;
14526;SDS011;7350;51.208;4.238;2023-04-23T00:39:00;6.50;;;5.90;;
14526;SDS011;7350;51.208;4.238;2023-04-23T00:41:28;6.38;;;5.78;;
14526;SDS011;7350;51.208;4.238;2023-04-23T00:43:55;7.43;;;6.72;;
14526;SDS011;7350;51.208;4.238;2023-04-23T00:46:23;7.30;;;6.60;;
14526;SDS011;7350;51.208;4.238;2023-04-23T00:48:51;6.88;;;6.28;;
14526;SDS011;7350;51.208;4.238;2023-04-23T00:51:19;7.22;;;6.53;;
14526;SDS011;7350;51.208;4.238;2023-04-23T00:53:47;6.38;;;5.85;;
14526;SDS011;7350;51.208;4.238;2023-04-23T00:56:14;6.82;;;6.20;;
14526;SDS011;7350;51.208;4.238;2023-04-23T00:58:43;6.57;;;5.97;;
14526;SDS011;7350;51.208;4.238;2023-04-23T01:01:11;6.70;;;6.10;;
14526;SDS011;7350;51.208;4.238;2023-04-23T01:03:38;6.55;;;5.95;;
14526;SDS011;7350;51.208;4.238;2023-04-23T01:06:07;6.43;;;5.93;;
14526;SDS011;7350;51.208;4.238;2023-04-23T01:08:34;6.20;;;5.70;;
14526;SDS011;7350;51.208;4.238;2023-04-23T01:11:02;6.43;;;5.82;;
14526;SDS011;7350;51.208;4.238;2023-04-23T01:13:29;6.88;;;6.28;;
14526;SDS011;7350;51.208;4.238;2023-04-23T01:15:57;6.30;;;5.70;;
14526;SDS011;7350;51.208;4.238;2023-04-23T01:18:24;7.20;;;6.60;;
14526;SDS011;7350;51.208;4.238;2023-04-23T01:20:52;7.22;;;6.30;;
14526;SDS011;7350;51.208;4.238;2023-04-23T01:23:20;6.85;;;6.25;;
14526;SDS011;7350;51.208;4.238;2023-04-23T01:25:47;6.70;;;6.10;;
14526;SDS011;7350;51.208;4.238;2023-04-23T01:28:15;6.72;;;6.13;;
14526;SDS011;7350;51.208;4.238;2023-04-23T01:30:42;6.57;;;5.97;;
14526;SDS011;7350;51.208;4.238;2023-04-23T01:33:10;6.50;;;5.80;;
14526;SDS011;7350;51.208;4.238;2023-04-23T01:35:38;6.43;;;5.93;;
14526;SDS011;7350;51.208;4.238;2023-04-23T01:38:06;7.00;;;6.40;;
14526;SDS011;7350;51.208;4.238;2023-04-23T01:40:37;6.00;;;5.50;;
14526;SDS011;7350;51.208;4.238;2023-04-23T01:43:04;6.70;;;6.10;;
14526;SDS011;7350;51.208;4.238;2023-04-23T01:45:32;6.43;;;5.82;;
14526;SDS011;7350;51.208;4.238;2023-04-23T01:47:59;6.57;;;5.97;;
14526;SDS011;7350;51.208;4.238;2023-04-23T01:50:26;6.70;;;6.10;;
14526;SDS011;7350;51.208;4.238;2023-04-23T01:52:54;6.57;;;5.97;;
14526;SDS011;7350;51.208;4.238;2023-04-23T01:55:21;6.40;;;5.80;;
14526;SDS011;7350;51.208;4.238;2023-04-23T01:57:50;5.85;;;5.35;;
14526;SDS011;7350;51.208;4.238;2023-04-23T02:00:17;6.45;;;5.85;;
14526;SDS011;7350;51.208;4.238;2023-04-23T02:02:44;6.68;;;6.07;;
14526;SDS011;7350;51.208;4.238;2023-04-23T02:05:13;6.05;;;5.47;;
14526;SDS011;7350;51.208;4.238;2023-04-23T02:07:42;6.38;;;5.78;;
14526;SDS011;7350;51.208;4.238;2023-04-23T02:10:10;6.28;;;5.75;;
14526;SDS011;7350;51.208;4.238;2023-04-23T02:12:37;6.10;;;5.60;;
14526;SDS011;7350;51.208;4.238;2023-04-23T02:15:07;5.55;;;5.10;;
14526;SDS011;7350;51.208;4.238;2023-04-23T02:17:36;5.80;;;5.30;;
14526;SDS011;7350;51.208;4.238;2023-04-23T02:20:04;6.82;;;6.22;;
14526;SDS011;7350;51.208;4.238;2023-04-23T02:22:33;6.40;;;5.75;;
14526;SDS011;7350;51.208;4.238;2023-04-23T02:25:02;5.88;;;5.38;;
14526;SDS011;7350;51.208;4.238;2023-04-23T02:27:29;6.00;;;5.40;;
14526;SDS011;7350;51.208;4.238;2023-04-23T02:29:57;6.40;;;5.88;;
14526;SDS011;7350;51.208;4.238;2023-04-23T02:32:25;5.80;;;5.30;;
14526;SDS011;7350;51.208;4.238;2023-04-23T02:34:53;6.45;;;5.72;;
14526;SDS011;7350;51.208;4.238;2023-04-23T02:37:20;5.70;;;5.20;;
14526;SDS011;7350;51.208;4.238;2023-04-23T02:39:47;5.63;;;5.13;;
14526;SDS011;7350;51.208;4.238;2023-04-23T02:42:14;5.70;;;5.20;;
14526;SDS011;7350;51.208;4.238;2023-04-23T02:44:41;6.13;;;5.63;;
14526;SDS011;7350;51.208;4.238;2023-04-23T02:47:08;5.75;;;5.25;;
14526;SDS011;7350;51.208;4.238;2023-04-23T02:49:36;5.32;;;4.82;;
14526;SDS011;7350;51.208;4.238;2023-04-23T02:52:03;5.43;;;5.00;;
14526;SDS011;7350;51.208;4.238;2023-04-23T02:54:30;5.82;;;5.32;;
14526;SDS011;7350;51.208;4.238;2023-04-23T02:56:57;5.35;;;4.85;;
14526;SDS011;7350;51.208;4.238;2023-04-23T02:59:24;5.95;;;5.45;;
14526;SDS011;7350;51.208;4.238;2023-04-23T03:01:51;5.97;;;5.38;;
14526;SDS011;7350;51.208;4.238;2023-04-23T03:04:18;5.85;;;5.35;;
14526;SDS011;7350;51.208;4.238;2023-04-23T03:06:47;5.25;;;4.85;;
14526;SDS011;7350;51.208;4.238;2023-04-23T03:09:14;5.72;;;5.22;;
14526;SDS011;7350;51.208;4.238;2023-04-23T03:11:40;5.20;;;4.75;;
14526;SDS011;7350;51.208;4.238;2023-04-23T03:14:07;5.70;;;5.20;;
14526;SDS011;7350;51.208;4.238;2023-04-23T03:16:34;5.65;;;5.15;;
14526;SDS011;7350;51.208;4.238;2023-04-23T03:19:02;5.43;;;5.00;;
14526;SDS011;7350;51.208;4.238;2023-04-23T03:21:29;5.82;;;5.32;;
14526;SDS011;7350;51.208;4.238;2023-04-23T03:23:57;5.65;;;5.15;;
14526;SDS011;7350;51.208;4.238;2023-04-23T03:26:24;5.40;;;4.95;;
14526;SDS011;7350;51.208;4.238;2023-04-23T03:28:51;5.50;;;5.00;;
14526;SDS011;7350;51.208;4.238;2023-04-23T03:31:18;5.45;;;4.95;;
14526;SDS011;7350;51.208;4.238;2023-04-23T03:33:45;5.50;;;5.00;;
14526;SDS011;7350;51.208;4.238;2023-04-23T03:36:12;5.50;;;5.00;;
14526;SDS011;7350;51.208;4.238;2023-04-23T03:38:39;5.20;;;4.80;;
14526;SDS011;7350;51.208;4.238;2023-04-23T03:41:08;5.60;;;5.10;;
14526;SDS011;7350;51.208;4.238;2023-04-23T03:43:35;4.93;;;4.53;;
14526;SDS011;7350;51.208;4.238;2023-04-23T03:46:01;5.50;;;5.10;;
14526;SDS011;7350;51.208;4.238;2023-04-23T03:48:28;4.95;;;4.55;;
14526;SDS011;7350;51.208;4.238;2023-04-23T03:50:56;5.38;;;4.97;;
14526;SDS011;7350;51.208;4.238;2023-04-23T03:53:23;5.35;;;4.90;;
14526;SDS011;7350;51.208;4.238;2023-04-23T03:55:50;5.60;;;5.10;;
14526;SDS011;7350;51.208;4.238;2023-04-23T03:58:18;5.18;;;4.68;;
14526;SDS011;7350;51.208;4.238;2023-04-23T04:00:45;5.03;;;4.63;;
14526;SDS011;7350;51.208;4.238;2023-04-23T04:03:12;5.55;;;5.15;;
14526;SDS011;7350;51.208;4.238;2023-04-23T04:05:39;5.18;;;4.78;;
14526;SDS011;7350;51.208;4.238;2023-04-23T04:08:06;5.43;;;4.93;;
14526;SDS011;7350;51.208;4.238;2023-04-23T04:10:33;4.97;;;4.57;;
14526;SDS011;7350;51.208;4.238;2023-04-23T04:13:00;5.32;;;4.82;;
14526;SDS011;7350;51.208;4.238;2023-04-23T04:15:29;4.70;;;4.30;;
14526;SDS011;7350;51.208;4.238;2023-04-23T04:17:57;5.82;;;4.63;;
14526;SDS011;7350;51.208;4.238;2023-04-23T04:20:25;5.20;;;4.70;;
14526;SDS011;7350;51.208;4.238;2023-04-23T04:22:52;5.03;;;4.63;;
14526;SDS011;7350;51.208;4.238;2023-04-23T04:25:20;4.57;;;3.97;;
14526;SDS011;7350;51.208;4.238;2023-04-23T04:27:48;8.20;;;4.93;;
14526;SDS011;7350;51.208;4.238;2023-04-23T04:30:15;6.07;;;4.72;;
14526;SDS011;7350;51.208;4.238;2023-04-23T04:32:44;5.65;;;5.15;;
14526;SDS011;7350;51.208;4.238;2023-04-23T04:35:11;5.63;;;5.13;;
14526;SDS011;7350;51.208;4.238;2023-04-23T04:37:38;6.15;;;5.65;;
14526;SDS011;7350;51.208;4.238;2023-04-23T04:40:06;8.65;;;5.88;;
14526;SDS011;7350;51.208;4.238;2023-04-23T04:42:35;6.78;;;6.18;;
14526;SDS011;7350;51.208;4.238;2023-04-23T04:45:03;9.15;;;6.35;;
14526;SDS011;7350;51.208;4.238;2023-04-23T04:47:32;5.95;;;5.45;;
14526;SDS011;7350;51.208;4.238;2023-04-23T04:50:01;6.65;;;6.05;;
14526;SDS011;7350;51.208;4.238;2023-04-23T04:52:28;6.95;;;6.35;;
14526;SDS011;7350;51.208;4.238;2023-04-23T04:54:55;7.25;;;6.55;;
14526;SDS011;7350;51.208;4.238;2023-04-23T04:57:22;7.07;;;6.47;;
14526;SDS011;7350;51.208;4.238;2023-04-23T04:59:49;7.25;;;6.57;;
14526;SDS011;7350;51.208;4.238;2023-04-23T05:02:16;6.88;;;6.28;;
14526;SDS011;7350;51.208;4.238;2023-04-23T05:04:44;6.72;;;6.13;;
14526;SDS011;7350;51.208;4.238;2023-04-23T05:07:12;7.05;;;6.28;;
14526;SDS011;7350;51.208;4.238;2023-04-23T05:09:39;7.43;;;6.72;;
14526;SDS011;7350;51.208;4.238;2023-04-23T05:12:06;6.93;;;6.28;;
14526;SDS011;7350;51.208;4.238;2023-04-23T05:14:33;7.63;;;6.93;;
14526;SDS011;7350;51.208;4.238;2023-04-23T05:17:00;7.20;;;6.50;;
14526;SDS011;7350;51.208;4.238;2023-04-23T05:19:27;6.70;;;6.10;;
14526;SDS011;7350;51.208;4.238;2023-04-23T05:21:54;7.18;;;6.38;;
14526;SDS011;7350;51.208;4.238;2023-04-23T05:24:23;7.20;;;6.45;;
14526;SDS011;7350;51.208;4.238;2023-04-23T05:26:50;6.32;;;5.72;;
14526;SDS011;7350;51.208;4.238;2023-04-23T05:29:17;8.05;;;5.97;;
14526;SDS011;7350;51.208;4.238;2023-04-23T05:31:44;6.80;;;6.00;;
14526;SDS011;7350;51.208;4.238;2023-04-23T05:34:11;6.38;;;5.78;;
14526;SDS011;7350;51.208;4.238;2023-04-23T05:36:38;7.05;;;6.35;;
14526;SDS011;7350;51.208;4.238;2023-04-23T05:39:05;7.68;;;6.40;;
14526;SDS011;7350;51.208;4.238;2023-04-23T05:41:34;6.80;;;5.63;;
14526;SDS011;7350;51.208;4.238;2023-04-23T05:44:01;6.15;;;5.55;;
14526;SDS011;7350;51.208;4.238;2023-04-23T05:46:28;6.70;;;5.88;;
14526;SDS011;7350;51.208;4.238;2023-04-23T05:48:55;6.50;;;5.70;;
14526;SDS011;7350;51.208;4.238;2023-04-23T05:51:22;6.25;;;5.72;;
14526;SDS011;7350;51.208;4.238;2023-04-23T05:53:48;6.00;;;5.50;;
14526;SDS011;7350;51.208;4.238;2023-04-23T05:56:15;6.32;;;5.72;;
14526;SDS011;7350;51.208;4.238;2023-04-23T05:58:45;7.35;;;6.25;;
14526;SDS011;7350;51.208;4.238;2023-04-23T06:01:12;6.35;;;5.75;;
14526;SDS011;7350;51.208;4.238;2023-04-23T06:03:39;7.10;;;6.05;;
14526;SDS011;7350;51.208;4.238;2023-04-23T06:06:09;7.38;;;5.90;;
14526;SDS011;7350;51.208;4.238;2023-04-23T06:08:36;6.03;;;5.43;;
14526;SDS011;7350;51.208;4.238;2023-04-23T06:11:04;6.75;;;4.78;;
14526;SDS011;7350;51.208;4.238;2023-04-23T06:13:31;8.45;;;5.68;;
14526;SDS011;7350;51.208;4.238;2023-04-23T06:16:06;8.93;;;5.65;;
14526;SDS011;7350;51.208;4.238;2023-04-23T06:18:34;5.80;;;5.30;;
14526;SDS011;7350;51.208;4.238;2023-04-23T06:21:01;6.55;;;4.80;;
14526;SDS011;7350;51.208;4.238;2023-04-23T06:23:30;7.13;;;5.05;;
14526;SDS011;7350;51.208;4.238;2023-04-23T06:25:57;4.95;;;4.45;;
14526;SDS011;7350;51.208;4.238;2023-04-23T06:28:24;6.82;;;4.88;;
14526;SDS011;7350;51.208;4.238;2023-04-23T06:30:51;6.47;;;5.25;;
14526;SDS011;7350;51.208;4.238;2023-04-23T06:33:20;5.13;;;4.40;;
14526;SDS011;7350;51.208;4.238;2023-04-23T06:35:47;5.95;;;4.53;;
14526;SDS011;7350;51.208;4.238;2023-04-23T06:38:14;4.28;;;3.85;;
14526;SDS011;7350;51.208;4.238;2023-04-23T06:40:42;4.28;;;3.88;;
14526;SDS011;7350;51.208;4.238;2023-04-23T06:43:09;5.70;;;3.65;;
14526;SDS011;7350;51.208;4.238;2023-04-23T06:45:36;4.30;;;3.90;;
14526;SDS011;7350;51.208;4.238;2023-04-23T06:48:04;6.40;;;3.70;;
14526;SDS011;7350;51.208;4.238;2023-04-23T06:50:33;4.47;;;3.60;;
14526;SDS011;7350;51.208;4.238;2023-04-23T06:53:00;3.38;;;3.08;;
14526;SDS011;7350;51.208;4.238;2023-04-23T06:55:27;4.03;;;2.85;;
14526;SDS011;7350;51.208;4.238;2023-04-23T06:57:55;3.10;;;2.80;;
14526;SDS011;7350;51.208;4.238;2023-04-23T07:00:23;4.47;;;3.20;;
14526;SDS011;7350;51.208;4.238;2023-04-23T07:02:50;3.97;;;3.00;;
14526;SDS011;7350;51.208;4.238;2023-04-23T07:05:17;5.60;;;3.05;;
14526;SDS011;7350;51.208;4.238;2023-04-23T07:07:45;4.03;;;2.80;;
14526;SDS011;7350;51.208;4.238;2023-04-23T07:10:12;2.65;;;2.45;;
14526;SDS011;7350;51.208;4.238;2023-04-23T07:12:39;3.22;;;2.17;;
14526;SDS011;7350;51.208;4.238;2023-04-23T07:15:06;2.97;;;2.72;;
14526;SDS011;7350;51.208;4.238;2023-04-23T07:17:34;3.65;;;2.50;;
14526;SDS011;7350;51.208;4.238;2023-04-23T07:20:01;2.72;;;2.53;;
14526;SDS011;7350;51.208;4.238;2023-04-23T07:22:30;3.90;;;2.38;;
14526;SDS011;7350;51.208;4.238;2023-04-23T07:24:59;2.72;;;2.20;;
14526;SDS011;7350;51.208;4.238;2023-04-23T07:27:26;2.97;;;2.35;;
14526;SDS011;7350;51.208;4.238;2023-04-23T07:29:53;4.88;;;2.25;;
14526;SDS011;7350;51.208;4.238;2023-04-23T07:32:20;3.30;;;2.05;;
14526;SDS011;7350;51.208;4.238;2023-04-23T07:34:47;2.30;;;2.00;;
14526;SDS011;7350;51.208;4.238;2023-04-23T07:37:15;3.30;;;2.08;;
14526;SDS011;7350;51.208;4.238;2023-04-23T07:39:42;3.40;;;1.90;;
14526;SDS011;7350;51.208;4.238;2023-04-23T07:42:11;5.30;;;2.30;;
14526;SDS011;7350;51.208;4.238;2023-04-23T07:44:38;6.18;;;2.35;;
14526;SDS011;7350;51.208;4.238;2023-04-23T07:47:06;3.45;;;2.03;;
14526;SDS011;7350;51.208;4.238;2023-04-23T07:49:32;5.28;;;2.38;;
14526;SDS011;7350;51.208;4.238;2023-04-23T07:51:59;4.72;;;2.00;;
14526;SDS011;7350;51.208;4.238;2023-04-23T07:54:26;2.83;;;2.05;;
14526;SDS011;7350;51.208;4.238;2023-04-23T07:56:53;4.65;;;1.83;;
14526;SDS011;7350;51.208;4.238;2023-04-23T07:59:22;3.30;;;1.88;;
14526;SDS011;7350;51.208;4.238;2023-04-23T08:01:49;3.25;;;1.88;;
14526;SDS011;7350;51.208;4.238;2023-04-23T08:04:17;3.30;;;1.90;;
14526;SDS011;7350;51.208;4.238;2023-04-23T08:06:44;2.95;;;1.60;;
14526;SDS011;7350;51.208;4.238;2023-04-23T08:09:11;3.63;;;1.80;;
14526;SDS011;7350;51.208;4.238;2023-04-23T08:11:37;3.00;;;1.52;;
14526;SDS011;7350;51.208;4.238;2023-04-23T08:14:05;4.82;;;1.77;;
14526;SDS011;7350;51.208;4.238;2023-04-23T08:16:34;3.65;;;1.70;;
14526;SDS011;7350;51.208;4.238;2023-04-23T08:19:01;4.25;;;1.95;;
14526;SDS011;7350;51.208;4.238;2023-04-23T08:21:29;3.60;;;1.58;;
14526;SDS011;7350;51.208;4.238;2023-04-23T08:23:56;3.92;;;1.70;;
14526;SDS011;7350;51.208;4.238;2023-04-23T08:26:23;4.20;;;1.70;;
14526;SDS011;7350;51.208;4.238;2023-04-23T08:28:51;4.72;;;1.92;;
14526;SDS011;7350;51.208;4.238;2023-04-23T08:31:18;4.53;;;2.00;;
14526;SDS011;7350;51.208;4.238;2023-04-23T08:33:47;3.72;;;1.50;;
14526;SDS011;7350;51.208;4.238;2023-04-23T08:36:14;3.45;;;1.42;;
14526;SDS011;7350;51.208;4.238;2023-04-23T08:38:41;3.85;;;1.90;;
14526;SDS011;7350;51.208;4.238;2023-04-23T08:41:09;5.30;;;1.70;;
14526;SDS011;7350;51.208;4.238;2023-04-23T08:43:41;6.00;;;1.63;;
14526;SDS011;7350;51.208;4.238;2023-04-23T08:46:13;3.85;;;1.55;;
14526;SDS011;7350;51.208;4.238;2023-04-23T08:48:41;5.85;;;1.90;;
14526;SDS011;7350;51.208;4.238;2023-04-23T08:51:15;5.72;;;1.98;;
14526;SDS011;7350;51.208;4.238;2023-04-23T08:53:44;5.25;;;1.77;;
14526;SDS011;7350;51.208;4.238;2023-04-23T08:56:16;4.70;;;1.80;;
14526;SDS011;7350;51.208;4.238;2023-04-23T08:58:47;3.67;;;1.67;;
14526;SDS011;7350;51.208;4.238;2023-04-23T09:01:16;3.05;;;1.70;;
14526;SDS011;7350;51.208;4.238;2023-04-23T09:03:43;4.40;;;1.58;;
14526;SDS011;7350;51.208;4.238;2023-04-23T09:06:13;3.05;;;1.67;;
14526;SDS011;7350;51.208;4.238;2023-04-23T09:08:40;5.93;;;1.90;;
14526;SDS011;7350;51.208;4.238;2023-04-23T09:11:07;4.90;;;1.88;;
14526;SDS011;7350;51.208;4.238;2023-04-23T09:13:34;5.72;;;1.90;;
14526;SDS011;7350;51.208;4.238;2023-04-23T09:16:05;3.50;;;1.67;;
14526;SDS011;7350;51.208;4.238;2023-04-23T09:18:32;3.40;;;1.60;;
14526;SDS011;7350;51.208;4.238;2023-04-23T09:20:59;5.22;;;1.95;;
14526;SDS011;7350;51.208;4.238;2023-04-23T09:23:29;3.90;;;1.58;;
14526;SDS011;7350;51.208;4.238;2023-04-23T09:25:58;3.22;;;1.55;;
14526;SDS011;7350;51.208;4.238;2023-04-23T09:28:33;2.65;;;1.30;;
14526;SDS011;7350;51.208;4.238;2023-04-23T09:31:01;3.17;;;1.60;;
14526;SDS011;7350;51.208;4.238;2023-04-23T09:33:30;2.47;;;1.25;;
14526;SDS011;7350;51.208;4.238;2023-04-23T09:36:03;4.40;;;1.80;;
14526;SDS011;7350;51.208;4.238;2023-04-23T09:38:38;6.05;;;1.85;;
14526;SDS011;7350;51.208;4.238;2023-04-23T09:43:48;5.30;;;1.90;;
14526;SDS011;7350;51.208;4.238;2023-04-23T09:46:15;2.83;;;1.27;;
14526;SDS011;7350;51.208;4.238;2023-04-23T09:48:42;4.20;;;1.20;;
14526;SDS011;7350;51.208;4.238;2023-04-23T09:51:12;8.85;;;1.83;;
14526;SDS011;7350;51.208;4.238;2023-04-23T09:53:41;6.47;;;1.90;;
14526;SDS011;7350;51.208;4.238;2023-04-23T09:56:10;6.28;;;1.83;;
14526;SDS011;7350;51.208;4.238;2023-04-23T09:58:37;9.98;;;1.70;;
14526;SDS011;7350;51.208;4.238;2023-04-23T10:01:07;7.57;;;1.83;;
14526;SDS011;7350;51.208;4.238;2023-04-23T10:03:34;6.57;;;1.55;;
14526;SDS011;7350;51.208;4.238;2023-04-23T10:06:01;5.88;;;1.70;;
14526;SDS011;7350;51.208;4.238;2023-04-23T10:08:28;8.77;;;1.77;;
14526;SDS011;7350;51.208;4.238;2023-04-23T10:10:58;5.85;;;1.73;;
14526;SDS011;7350;51.208;4.238;2023-04-23T10:13:25;6.05;;;1.50;;
14526;SDS011;7350;51.208;4.238;2023-04-23T10:15:53;3.42;;;1.60;;
14526;SDS011;7350;51.208;4.238;2023-04-23T10:18:21;4.47;;;1.67;;
14526;SDS011;7350;51.208;4.238;2023-04-23T10:20:48;4.63;;;1.63;;
14526;SDS011;7350;51.208;4.238;2023-04-23T10:23:15;7.15;;;1.90;;
14526;SDS011;7350;51.208;4.238;2023-04-23T10:25:44;4.45;;;1.58;;
14526;SDS011;7350;51.208;4.238;2023-04-23T10:28:14;5.65;;;1.40;;
14526;SDS011;7350;51.208;4.238;2023-04-23T10:30:45;4.00;;;1.73;;
14526;SDS011;7350;51.208;4.238;2023-04-23T10:33:13;2.78;;;1.40;;
14526;SDS011;7350;51.208;4.238;2023-04-23T10:35:40;4.28;;;1.60;;
14526;SDS011;7350;51.208;4.238;2023-04-23T10:38:08;3.72;;;1.40;;
14526;SDS011;7350;51.208;4.238;2023-04-23T10:40:35;4.30;;;1.73;;
14526;SDS011;7350;51.208;4.238;2023-04-23T10:43:05;3.00;;;1.40;;
14526;SDS011;7350;51.208;4.238;2023-04-23T10:45:33;3.88;;;1.40;;
14526;SDS011;7350;51.208;4.238;2023-04-23T10:48:00;2.50;;;1.20;;
14526;SDS011;7350;51.208;4.238;2023-04-23T10:50:28;3.92;;;1.40;;
14526;SDS011;7350;51.208;4.238;2023-04-23T10:53:00;2.30;;;1.20;;
14526;SDS011;7350;51.208;4.238;2023-04-23T10:55:29;3.35;;;1.20;;
14526;SDS011;7350;51.208;4.238;2023-04-23T10:57:58;4.95;;;1.40;;
14526;SDS011;7350;51.208;4.238;2023-04-23T11:00:26;2.70;;;1.50;;
14526;SDS011;7350;51.208;4.238;2023-04-23T11:02:55;4.32;;;1.50;;
14526;SDS011;7350;51.208;4.238;2023-04-23T11:05:22;2.83;;;1.38;;
14526;SDS011;7350;51.208;4.238;2023-04-23T11:10:45;2.75;;;1.10;;
14526;SDS011;7350;51.208;4.238;2023-04-23T11:13:19;2.72;;;1.33;;
14526;SDS011;7350;51.208;4.238;2023-04-23T11:15:48;5.15;;;1.60;;
14526;SDS011;7350;51.208;4.238;2023-04-23T11:24:24;2.65;;;1.45;;
14526;SDS011;7350;51.208;4.238;2023-04-23T11:26:53;4.05;;;1.55;;
14526;SDS011;7350;51.208;4.238;2023-04-23T11:29:20;2.17;;;1.20;;
14526;SDS011;7350;51.208;4.238;2023-04-23T11:31:48;1.92;;;1.10;;
14526;SDS011;7350;51.208;4.238;2023-04-23T11:34:17;2.72;;;1.13;;
14526;SDS011;7350;51.208;4.238;2023-04-23T11:36:44;3.92;;;1.33;;
14526;SDS011;7350;51.208;4.238;2023-04-23T11:39:12;2.53;;;1.17;;
14526;SDS011;7350;51.208;4.238;2023-04-23T11:41:39;2.25;;;1.20;;
14526;SDS011;7350;51.208;4.238;2023-04-23T11:44:07;2.10;;;1.23;;
14526;SDS011;7350;51.208;4.238;2023-04-23T11:46:35;3.47;;;1.40;;
14526;SDS011;7350;51.208;4.238;2023-04-23T11:49:02;4.25;;;1.38;;
14526;SDS011;7350;51.208;4.238;2023-04-23T11:51:31;3.58;;;1.63;;
14526;SDS011;7350;51.208;4.238;2023-04-23T11:54:02;2.95;;;1.20;;
14526;SDS011;7350;51.208;4.238;2023-04-23T11:56:30;4.45;;;1.15;;
14526;SDS011;7350;51.208;4.238;2023-04-23T11:58:57;2.08;;;1.10;;
14526;SDS011;7350;51.208;4.238;2023-04-23T12:01:25;3.33;;;1.25;;
14526;SDS011;7350;51.208;4.238;2023-04-23T12:03:52;2.28;;;1.30;;
14526;SDS011;7350;51.208;4.238;2023-04-23T12:06:19;2.72;;;1.05;;
14526;SDS011;7350;51.208;4.238;2023-04-23T12:08:47;3.15;;;1.15;;
14526;SDS011;7350;51.208;4.238;2023-04-23T12:11:14;1.98;;;1.40;;
14526;SDS011;7350;51.208;4.238;2023-04-23T12:13:41;1.70;;;1.10;;
14526;SDS011;7350;51.208;4.238;2023-04-23T12:16:10;4.05;;;1.40;;
14526;SDS011;7350;51.208;4.238;2023-04-23T12:18:38;2.53;;;1.30;;
14526;SDS011;7350;51.208;4.238;2023-04-23T12:21:09;3.80;;;1.35;;
14526;SDS011;7350;51.208;4.238;2023-04-23T12:23:36;1.52;;;1.00;;
14526;SDS011;7350;51.208;4.238;2023-04-23T12:26:10;2.25;;;1.30;;
14526;SDS011;7350;51.208;4.238;2023-04-23T12:28:44;2.78;;;1.25;;
14526;SDS011;7350;51.208;4.238;2023-04-23T12:31:17;1.77;;;1.10;;
14526;SDS011;7350;51.208;4.238;2023-04-23T12:33:45;2.83;;;1.10;;
14526;SDS011;7350;51.208;4.238;2023-04-23T12:36:13;2.72;;;1.17;;
14526;SDS011;7350;51.208;4.238;2023-04-23T12:38:41;2.20;;;1.20;;
14526;SDS011;7350;51.208;4.238;2023-04-23T12:41:09;2.63;;;1.20;;
14526;SDS011;7350;51.208;4.238;2023-04-23T12:43:36;2.63;;;1.25;;
14526;SDS011;7350;51.208;4.238;2023-04-23T12:46:03;2.22;;;0.80;;
14526;SDS011;7350;51.208;4.238;2023-04-23T12:48:30;2.92;;;1.40;;
14526;SDS011;7350;51.208;4.238;2023-04-23T12:50:57;2.28;;;1.23;;
14526;SDS011;7350;51.208;4.238;2023-04-23T12:53:24;2.25;;;1.30;;
14526;SDS011;7350;51.208;4.238;2023-04-23T12:55:51;1.77;;;1.05;;
14526;SDS011;7350;51.208;4.238;2023-04-23T12:58:20;3.20;;;1.30;;
14526;SDS011;7350;51.208;4.238;2023-04-23T13:00:46;2.97;;;1.27;;
14526;SDS011;7350;51.208;4.238;2023-04-23T13:03:13;3.53;;;1.40;;
14526;SDS011;7350;51.208;4.238;2023-04-23T13:05:41;2.72;;;1.20;;
14526;SDS011;7350;51.208;4.238;2023-04-23T13:08:08;3.35;;;1.25;;
14526;SDS011;7350;51.208;4.238;2023-04-23T13:10:35;2.85;;;1.00;;
14526;SDS011;7350;51.208;4.238;2023-04-23T13:13:02;2.13;;;1.00;;
14526;SDS011;7350;51.208;4.238;2023-04-23T13:15:31;3.50;;;1.30;;
14526;SDS011;7350;51.208;4.238;2023-04-23T13:17:57;2.47;;;1.20;;
14526;SDS011;7350;51.208;4.238;2023-04-23T13:20:24;2.92;;;1.20;;
14526;SDS011;7350;51.208;4.238;2023-04-23T13:22:52;2.05;;;1.02;;
14526;SDS011;7350;51.208;4.238;2023-04-23T13:25:18;3.03;;;1.10;;
14526;SDS011;7350;51.208;4.238;2023-04-23T13:27:45;2.13;;;1.30;;
14526;SDS011;7350;51.208;4.238;2023-04-23T13:30:12;2.30;;;1.10;;
14526;SDS011;7350;51.208;4.238;2023-04-23T13:32:41;2.40;;;1.15;;
14526;SDS011;7350;51.208;4.238;2023-04-23T13:35:08;2.90;;;1.10;;
14526;SDS011;7350;51.208;4.238;2023-04-23T13:37:35;1.52;;;0.90;;
14526;SDS011;7350;51.208;4.238;2023-04-23T13:40:05;2.53;;;0.98;;
14526;SDS011;7350;51.208;4.238;2023-04-23T13:42:33;1.95;;;1.00;;
14526;SDS011;7350;51.208;4.238;2023-04-23T13:44:59;2.25;;;1.25;;
14526;SDS011;7350;51.208;4.238;2023-04-23T13:47:29;3.13;;;1.20;;
14526;SDS011;7350;51.208;4.238;2023-04-23T13:49:58;3.10;;;1.38;;
14526;SDS011;7350;51.208;4.238;2023-04-23T13:52:27;2.33;;;1.30;;
14526;SDS011;7350;51.208;4.238;2023-04-23T13:54:55;1.45;;;0.80;;
14526;SDS011;7350;51.208;4.238;2023-04-23T13:57:24;1.92;;;1.10;;
14526;SDS011;7350;51.208;4.238;2023-04-23T13:59:51;2.55;;;1.00;;
14526;SDS011;7350;51.208;4.238;2023-04-23T14:02:19;2.13;;;1.00;;
14526;SDS011;7350;51.208;4.238;2023-04-23T14:04:47;2.58;;;1.13;;
14526;SDS011;7350;51.208;4.238;2023-04-23T14:07:16;1.65;;;1.10;;
14526;SDS011;7350;51.208;4.238;2023-04-23T14:09:43;2.30;;;1.17;;
14526;SDS011;7350;51.208;4.238;2023-04-23T14:12:11;2.42;;;1.20;;
14526;SDS011;7350;51.208;4.238;2023-04-23T14:14:38;2.08;;;1.00;;
14526;SDS011;7350;51.208;4.238;2023-04-23T14:17:05;2.78;;;1.10;;
14526;SDS011;7350;51.208;4.238;2023-04-23T14:19:32;3.17;;;1.10;;
14526;SDS011;7350;51.208;4.238;2023-04-23T14:22:01;2.05;;;0.90;;
14526;SDS011;7350;51.208;4.238;2023-04-23T14:24:32;1.95;;;1.02;;
14526;SDS011;7350;51.208;4.238;2023-04-23T14:27:00;2.33;;;1.50;;
14526;SDS011;7350;51.208;4.238;2023-04-23T14:29:34;1.45;;;1.05;;
14526;SDS011;7350;51.208;4.238;2023-04-23T14:32:05;1.92;;;1.00;;
14526;SDS011;7350;51.208;4.238;2023-04-23T14:34:32;1.63;;;0.90;;
14526;SDS011;7350;51.208;4.238;2023-04-23T14:36:59;2.42;;;1.10;;
14526;SDS011;7350;51.208;4.238;2023-04-23T14:39:26;2.72;;;1.40;;
14526;SDS011;7350;51.208;4.238;2023-04-23T14:41:55;3.20;;;0.95;;
14526;SDS011;7350;51.208;4.238;2023-04-23T14:44:22;2.53;;;1.00;;
14526;SDS011;7350;51.208;4.238;2023-04-23T14:46:50;1.77;;;1.00;;
14526;SDS011;7350;51.208;4.238;2023-04-23T14:49:17;1.85;;;0.90;;
14526;SDS011;7350;51.208;4.238;2023-04-23T14:51:45;1.63;;;0.98;;
14526;SDS011;7350;51.208;4.238;2023-04-23T14:54:14;2.17;;;1.13;;
14526;SDS011;7350;51.208;4.238;2023-04-23T14:56:41;1.75;;;0.80;;
14526;SDS011;7350;51.208;4.238;2023-04-23T14:59:09;2.30;;;1.00;;
14526;SDS011;7350;51.208;4.238;2023-04-23T15:01:36;1.88;;;1.20;;
14526;SDS011;7350;51.208;4.238;2023-04-23T15:04:03;1.05;;;0.90;;
14526;SDS011;7350;51.208;4.238;2023-04-23T15:06:30;2.90;;;0.85;;
14526;SDS011;7350;51.208;4.238;2023-04-23T15:08:57;1.38;;;0.88;;
14526;SDS011;7350;51.208;4.238;2023-04-23T15:11:24;1.30;;;1.00;;
14526;SDS011;7350;51.208;4.238;2023-04-23T15:13:54;1.20;;;0.80;;
14526;SDS011;7350;51.208;4.238;2023-04-23T15:16:29;1.20;;;0.80;;